createdAt,value
2018-05-10T00:02:26.474Z,10.62
2018-05-10T00:04:58.762Z,10.71
2018-05-10T00:07:31.107Z,10.77
2018-05-10T00:10:03.836Z,10.93
2018-05-10T00:12:36.168Z,10.99
2018-05-10T00:15:08.455Z,11.08
2018-05-10T00:17:40.839Z,11.12
2018-05-10T00:20:13.228Z,11.17
2018-05-10T00:22:45.735Z,11.14
2018-05-10T00:25:20.543Z,11.12
2018-05-10T00:27:52.970Z,10.74
2018-05-10T00:30:25.399Z,10.38
2018-05-10T00:32:57.721Z,10.22
2018-05-10T00:35:30.068Z,10.17
2018-05-10T00:38:02.544Z,10.40
2018-05-10T00:40:34.895Z,10.34
2018-05-10T00:45:45.608Z,9.70
2018-05-10T00:48:17.939Z,9.53
2018-05-10T00:50:50.147Z,9.46
2018-05-10T00:53:22.460Z,9.31
2018-05-10T00:55:54.668Z,9.44
2018-05-10T00:58:26.940Z,9.53
2018-05-10T01:00:59.195Z,9.46
2018-05-10T01:03:31.483Z,9.35
2018-05-10T01:06:03.795Z,9.34
2018-05-10T01:08:36.432Z,9.36
2018-05-10T01:11:09.023Z,9.35
2018-05-10T01:13:41.298Z,9.35
2018-05-10T01:16:13.785Z,9.24
2018-05-10T01:18:46.026Z,9.21
2018-05-10T01:21:18.434Z,8.84
2018-05-10T01:23:50.953Z,8.82
2018-05-10T01:26:23.410Z,9.01
2018-05-10T01:28:55.699Z,9.02
2018-05-10T01:31:27.976Z,8.91
2018-05-10T01:34:00.326Z,8.95
2018-05-10T01:36:32.594Z,9.01
2018-05-10T01:39:05.043Z,8.97
2018-05-10T01:41:37.365Z,8.77
2018-05-10T01:44:09.683Z,8.73
2018-05-10T01:46:41.976Z,8.75
2018-05-10T01:49:14.319Z,8.64
2018-05-10T01:51:46.628Z,9.05
2018-05-10T01:54:19.007Z,9.22
2018-05-10T01:56:51.430Z,9.23
2018-05-10T01:59:23.717Z,9.25
2018-05-10T02:01:55.899Z,9.31
2018-05-10T02:04:28.303Z,9.05
2018-05-10T02:07:00.678Z,8.91
2018-05-10T02:09:33.027Z,8.77
2018-05-10T02:12:05.617Z,8.60
2018-05-10T02:14:37.921Z,8.66
2018-05-10T02:17:10.362Z,8.57
2018-05-10T02:19:42.651Z,8.46
2018-05-10T02:22:15.324Z,8.18
2018-05-10T02:24:47.656Z,8.00
2018-05-10T02:27:20.141Z,8.04
2018-05-10T02:29:52.476Z,8.13
2018-05-10T02:32:24.713Z,8.43
2018-05-10T02:34:57.110Z,8.51
2018-05-10T02:37:29.529Z,8.83
2018-05-10T02:40:01.936Z,9.03
2018-05-10T02:42:34.388Z,9.11
2018-05-10T02:45:06.829Z,9.32
2018-05-10T02:47:39.325Z,9.24
2018-05-10T02:50:11.616Z,9.30
2018-05-10T02:52:44.029Z,9.43
2018-05-10T02:55:16.481Z,9.60
2018-05-10T02:57:48.901Z,9.60
2018-05-10T03:00:21.254Z,9.22
2018-05-10T03:02:53.556Z,8.77
2018-05-10T03:05:25.926Z,8.06
2018-05-10T03:07:58.225Z,7.96
2018-05-10T03:10:30.593Z,7.56
2018-05-10T03:13:03.173Z,7.57
2018-05-10T03:15:35.700Z,7.58
2018-05-10T03:18:07.931Z,7.91
2018-05-10T03:20:40.283Z,8.29
2018-05-10T03:23:12.749Z,8.34
2018-05-10T03:25:45.208Z,8.42
2018-05-10T03:28:17.641Z,8.40
2018-05-10T03:30:50.037Z,8.24
2018-05-10T03:33:22.495Z,8.20
2018-05-10T03:35:54.891Z,8.13
2018-05-10T03:38:27.199Z,8.21
2018-05-10T03:40:59.546Z,8.33
2018-05-10T03:43:31.950Z,8.30
2018-05-10T03:46:04.337Z,8.37
2018-05-10T03:48:36.739Z,8.48
2018-05-10T03:51:09.034Z,8.81
2018-05-10T03:53:41.283Z,9.04
2018-05-10T03:56:13.653Z,9.30
2018-05-10T03:58:46.043Z,9.46
2018-05-10T04:01:18.561Z,9.64
2018-05-10T04:04:03.008Z,9.76
2018-05-10T04:06:47.318Z,9.61
2018-05-10T04:09:31.653Z,9.71
2018-05-10T04:12:04.113Z,9.64
2018-05-10T04:14:36.582Z,9.63
2018-05-10T04:17:08.886Z,9.43
2018-05-10T04:19:41.146Z,9.18
2018-05-10T04:22:13.469Z,9.12
2018-05-10T04:24:45.908Z,9.12
2018-05-10T04:27:18.313Z,9.06
2018-05-10T04:29:50.544Z,9.01
2018-05-10T04:32:22.783Z,9.17
2018-05-10T04:34:55.023Z,9.45
2018-05-10T04:37:27.301Z,9.76
2018-05-10T04:39:59.547Z,10.05
2018-05-10T04:42:31.937Z,10.37
2018-05-10T04:45:04.410Z,10.71
2018-05-10T04:47:36.744Z,10.72
2018-05-10T04:50:09.151Z,10.65
2018-05-10T04:52:41.440Z,10.50
2018-05-10T04:55:13.676Z,10.60
2018-05-10T04:57:46.191Z,10.60
2018-05-10T05:00:18.631Z,10.90
2018-05-10T05:02:50.976Z,10.99
2018-05-10T05:05:23.264Z,11.09
2018-05-10T05:07:55.618Z,11.04
2018-05-10T05:10:28.022Z,11.24
2018-05-10T05:13:00.402Z,11.48
2018-05-10T05:15:32.841Z,11.77
2018-05-10T05:18:05.105Z,12.27
2018-05-10T05:20:37.494Z,12.72
2018-05-10T05:23:09.874Z,13.24
2018-05-10T05:25:42.350Z,13.48
2018-05-10T05:28:14.655Z,13.68
2018-05-10T05:30:47.121Z,13.44
2018-05-10T05:33:19.447Z,13.69
2018-05-10T05:35:51.724Z,13.71
2018-05-10T05:38:24.101Z,13.70
2018-05-10T05:40:56.500Z,13.99
2018-05-10T05:43:28.914Z,14.34
2018-05-10T05:46:01.435Z,14.04
2018-05-10T05:48:33.666Z,14.29
2018-05-10T05:53:55.932Z,14.78
2018-05-10T05:56:22.205Z,15.01
2018-05-10T05:58:48.481Z,14.84
2018-05-10T06:01:14.839Z,14.72
2018-05-10T06:03:41.131Z,15.11
2018-05-10T06:06:07.415Z,15.71
2018-05-10T06:08:33.738Z,16.18
2018-05-10T06:11:00.030Z,16.21
2018-05-10T06:13:26.313Z,16.46
2018-05-10T06:15:52.803Z,16.48
2018-05-10T06:18:19.052Z,16.60
2018-05-10T06:20:45.327Z,17.00
2018-05-10T06:23:12.699Z,17.06
2018-05-10T06:25:38.984Z,17.29
2018-05-10T06:28:05.264Z,17.34
2018-05-10T06:30:31.583Z,17.17
2018-05-10T06:32:57.856Z,16.45
2018-05-10T06:35:24.139Z,16.59
2018-05-10T06:37:50.458Z,16.95
2018-05-10T06:40:16.940Z,17.18
2018-05-10T06:42:43.216Z,17.20
2018-05-10T06:45:09.592Z,17.41
2018-05-10T06:47:35.871Z,17.53
2018-05-10T06:50:02.172Z,17.93
2018-05-10T06:52:28.505Z,17.89
2018-05-10T06:54:54.815Z,18.12
2018-05-10T06:57:21.125Z,18.40
2018-05-10T06:59:47.450Z,18.47
2018-05-10T07:02:13.728Z,18.37
2018-05-10T07:04:40.009Z,18.76
2018-05-10T07:07:06.420Z,19.27
2018-05-10T07:09:32.940Z,19.13
2018-05-10T07:11:59.088Z,19.18
2018-05-10T07:14:25.433Z,19.36
2018-05-10T07:16:51.831Z,19.49
2018-05-10T07:19:18.116Z,19.33
2018-05-10T07:21:44.443Z,19.70
2018-05-10T07:24:10.714Z,20.35
2018-05-10T07:26:38.172Z,20.15
2018-05-10T07:29:04.671Z,19.96
2018-05-10T07:31:30.946Z,20.00
2018-05-10T07:33:57.234Z,20.11
2018-05-10T07:36:23.560Z,20.59
2018-05-10T07:38:49.841Z,20.67
2018-05-10T07:41:16.136Z,20.86
2018-05-10T07:43:42.452Z,20.90
2018-05-10T07:46:08.773Z,21.35
2018-05-10T07:48:35.081Z,21.19
2018-05-10T07:51:01.484Z,21.06
2018-05-10T07:53:27.766Z,21.76
2018-05-10T07:55:54.043Z,21.57
2018-05-10T07:58:20.372Z,20.80
2018-05-10T08:00:46.669Z,20.22
2018-05-10T08:03:12.969Z,20.37
2018-05-10T08:05:39.301Z,20.10
2018-05-10T08:08:05.606Z,20.02
2018-05-10T08:10:31.900Z,19.94
2018-05-10T08:12:58.299Z,20.02
2018-05-10T08:15:24.577Z,19.87
2018-05-10T08:17:51.032Z,19.78
2018-05-10T08:20:17.361Z,19.65
2018-05-10T08:22:43.639Z,19.54
2018-05-10T08:25:09.945Z,19.43
2018-05-10T08:27:45.192Z,19.16
2018-05-10T08:30:11.595Z,19.07
2018-05-10T08:32:37.790Z,19.03
2018-05-10T08:35:04.263Z,19.02
2018-05-10T08:37:30.561Z,18.94
2018-05-10T08:39:56.948Z,18.92
2018-05-10T08:42:23.293Z,19.14
2018-05-10T08:44:49.613Z,19.39
2018-05-10T08:47:15.894Z,19.84
2018-05-10T08:49:42.210Z,20.57
2018-05-10T08:52:08.490Z,20.85
2018-05-10T08:54:34.796Z,20.78
2018-05-10T08:57:01.161Z,20.85
2018-05-10T08:59:27.426Z,20.89
2018-05-10T09:01:53.708Z,20.65
2018-05-10T09:04:20.024Z,20.62
2018-05-10T09:06:46.282Z,20.78
2018-05-10T09:09:12.579Z,20.83
2018-05-10T09:11:38.885Z,20.55
2018-05-10T09:14:05.200Z,19.94
2018-05-10T09:16:31.479Z,19.27
2018-05-10T09:19:00.903Z,19.17
2018-05-10T09:21:27.181Z,19.19
2018-05-10T09:23:53.498Z,19.03
2018-05-10T09:26:19.823Z,18.62
2018-05-10T09:28:46.102Z,18.23
2018-05-10T09:31:12.364Z,18.10
2018-05-10T09:33:38.731Z,17.74
2018-05-10T09:36:05.008Z,17.76
2018-05-10T09:38:31.288Z,17.74
2018-05-10T09:40:57.672Z,17.47
2018-05-10T09:43:23.936Z,17.26
2018-05-10T09:45:50.231Z,16.93
2018-05-10T09:48:16.541Z,17.03
2018-05-10T09:50:42.805Z,17.00
2018-05-10T09:53:09.097Z,16.89
2018-05-10T09:55:35.432Z,16.72
2018-05-10T09:58:01.784Z,16.60
2018-05-10T10:00:28.929Z,16.43
2018-05-10T10:02:55.293Z,16.53
2018-05-10T10:05:21.600Z,16.66
2018-05-10T10:07:47.888Z,16.74
2018-05-10T10:10:14.202Z,16.51
2018-05-10T10:12:40.503Z,16.69
2018-05-10T10:15:06.792Z,16.50
2018-05-10T10:17:33.113Z,16.34
2018-05-10T10:19:59.938Z,16.63
2018-05-10T10:22:26.207Z,16.43
2018-05-10T10:24:55.515Z,16.46
2018-05-10T10:27:21.879Z,16.70
2018-05-10T10:29:48.122Z,16.89
2018-05-10T10:32:14.699Z,16.90
2018-05-10T10:34:40.926Z,17.10
2018-05-10T10:37:07.211Z,17.53
2018-05-10T10:39:33.576Z,17.63
2018-05-10T10:41:59.948Z,17.86
2018-05-10T10:44:26.232Z,17.77
2018-05-10T10:46:52.607Z,17.91
2018-05-10T10:49:18.909Z,17.78
2018-05-10T10:51:45.195Z,17.88
2018-05-10T10:54:11.614Z,17.91
2018-05-10T10:56:37.901Z,18.08
2018-05-10T10:59:04.189Z,17.93
2018-05-10T11:01:30.505Z,18.23
2018-05-10T11:03:56.800Z,18.10
2018-05-10T11:06:25.699Z,18.57
2018-05-10T11:08:52.259Z,19.54
2018-05-10T11:11:18.482Z,20.21
2018-05-10T11:13:44.770Z,20.57
2018-05-10T11:16:11.079Z,20.06
2018-05-10T11:18:37.352Z,19.78
2018-05-10T11:21:08.944Z,19.57
2018-05-10T11:23:35.269Z,20.23
2018-05-10T11:26:01.605Z,20.55
2018-05-10T11:28:28.004Z,20.94
2018-05-10T11:30:54.467Z,21.51
2018-05-10T11:33:20.943Z,21.71
2018-05-10T11:35:47.211Z,21.38
2018-05-10T11:38:13.592Z,21.36
2018-05-10T11:40:40.928Z,21.46
2018-05-10T11:43:08.199Z,21.54
2018-05-10T11:45:34.623Z,21.21
2018-05-10T11:48:01.024Z,20.83
2018-05-10T11:50:27.400Z,20.56
2018-05-10T11:52:53.808Z,20.51
2018-05-10T11:55:20.126Z,20.83
2018-05-10T11:57:46.484Z,20.43
2018-05-10T12:00:12.886Z,20.87
2018-05-10T12:02:39.235Z,20.69
2018-05-10T12:05:05.475Z,20.97
2018-05-10T12:07:31.893Z,20.83
2018-05-10T12:09:58.184Z,20.83
2018-05-10T12:12:24.462Z,21.05
2018-05-10T12:14:50.821Z,20.66
2018-05-10T12:17:17.104Z,20.46
2018-05-10T12:19:43.380Z,20.20
2018-05-10T12:22:09.799Z,20.18
2018-05-10T12:24:36.075Z,20.16
2018-05-10T12:27:02.355Z,20.00
2018-05-10T12:29:28.676Z,19.85
2018-05-10T12:31:54.952Z,19.71
2018-05-10T12:34:21.238Z,19.56
2018-05-10T12:36:47.636Z,19.39
2018-05-10T12:39:13.968Z,19.21
2018-05-10T12:41:40.291Z,19.17
2018-05-10T12:44:06.633Z,19.01
2018-05-10T12:46:32.921Z,18.91
2018-05-10T12:48:59.318Z,18.71
2018-05-10T12:51:25.652Z,18.74
2018-05-10T12:53:51.957Z,18.64
2018-05-10T12:56:18.267Z,18.72
2018-05-10T12:58:44.660Z,18.73
2018-05-10T13:01:10.942Z,18.61
2018-05-10T13:03:37.237Z,18.38
2018-05-10T13:06:03.544Z,17.82
2018-05-10T13:08:29.926Z,17.73
2018-05-10T13:10:56.135Z,17.54
2018-05-10T13:13:22.450Z,17.30
2018-05-10T13:15:48.762Z,16.97
2018-05-10T13:18:15.039Z,16.78
2018-05-10T13:20:43.157Z,16.70
2018-05-10T13:23:09.898Z,16.67
2018-05-10T13:25:36.226Z,16.63
2018-05-10T13:28:02.552Z,16.55
2018-05-10T13:30:28.865Z,16.69
2018-05-10T13:32:55.152Z,16.76
2018-05-10T13:35:21.477Z,16.97
2018-05-10T13:37:47.761Z,16.99
2018-05-10T13:40:14.052Z,17.09
2018-05-10T13:42:40.427Z,17.17
2018-05-10T13:45:06.722Z,17.24
2018-05-10T13:47:33.056Z,17.37
2018-05-10T13:49:59.382Z,17.24
2018-05-10T13:52:25.697Z,17.32
2018-05-10T13:54:51.984Z,17.12
2018-05-10T13:57:18.380Z,17.09
2018-05-10T13:59:44.673Z,17.18
2018-05-10T14:02:10.942Z,17.16
2018-05-10T14:04:37.373Z,17.32
2018-05-10T14:07:03.600Z,17.30
2018-05-10T14:09:29.884Z,17.38
2018-05-10T14:11:56.225Z,17.37
2018-05-10T14:14:22.507Z,17.26
2018-05-10T14:16:48.800Z,17.33
2018-05-10T14:19:15.164Z,17.26
2018-05-10T14:21:41.472Z,17.24
2018-05-10T14:24:07.874Z,17.37
2018-05-10T14:26:34.341Z,17.44
2018-05-10T14:29:00.611Z,17.23
2018-05-10T14:31:26.908Z,17.25
2018-05-10T14:33:53.221Z,17.26
2018-05-10T14:36:19.495Z,17.26
2018-05-10T14:38:45.776Z,17.27
2018-05-10T14:41:12.087Z,17.21
2018-05-10T14:43:38.359Z,16.85
2018-05-10T14:46:04.692Z,16.41
2018-05-10T14:48:31.074Z,15.95
2018-05-10T14:50:57.404Z,15.81
2018-05-10T14:53:23.682Z,15.78
2018-05-10T14:55:50.019Z,15.47
2018-05-10T14:58:16.320Z,15.21
2018-05-10T15:00:42.622Z,15.04
2018-05-10T15:03:08.973Z,14.96
2018-05-10T15:05:35.261Z,14.89
2018-05-10T15:08:01.684Z,14.91
2018-05-10T15:10:28.224Z,14.85
2018-05-10T15:12:54.517Z,14.86
2018-05-10T15:15:20.804Z,14.92
2018-05-10T15:17:47.155Z,14.96
